Terminal Aerodrome Forecast
Issued by NWS

Home | Current Version | Previous Version | Text Only | Print | Product List | Glossary On
Versions: 1 2 3 4 5 6 7 8 9 10 11 12
156
FTUS45 KFGZ 191737
TAFPGA
TAF
KPGA 191737Z 1918/2018 VRB05KT P6SM VCSH OVC040
      TEMPO 1919/1923 4SM -SHRA OVC030
     FM192300 23010KT 3SM -SHRA OVC020
     FM201500 23009KT P6SM BKN025=

USA.gov is the U.S. government's official web portal to all federal, state and local government web resources and services.